Terminal Aerodrome Forecast
Issued by NWS Blacksburg, VA

Home | Current Version | Previous Version | Text Only | Print | Product List | Glossary On
Versions: 1 2 3 4 5 6 7 8 9 10 11 12 13 14 15 16 17 18 19 20 21 22 23 24 25 26 27 28
000
FTUS41 KRNK 182328
TAFLYH
TAF
KLYH 182328Z 1900/1924 21012G22KT P6SM VCSH BKN150
     FM190200 21014KT P6SM BKN090
      TEMPO 1902/1904 4SM -SHRA OVC040
     FM190400 21015G23KT P6SM -SHRA OVC035
     FM190700 23013G22KT P6SM OVC050
      TEMPO 1907/1909 4SM -SHRA OVC025=

USA.gov is the U.S. government's official web portal to all federal, state and local government web resources and services.